Admire, Kansas
Current Conditions -  °F | °C
As of 4:53 AM on Wednesday 22 Oct 2014 (Local Time) from KEMP Reporting Station
Clear Clear  
Wind Chill: 53°   Ceiling: Unl
Heat Index: 53°   Visibility: 10mi
Dew Point: 49°   Wind: 9mph
Humidity: 86%   Direction: 140°SE
Pressure: 30.1"   Gusts: NA
Location:  38.64°N, 96.1°W
Report Text: KEMP 220953Z AUTO 14008KT 10SM CLR 12/09 A3010 RMK AO2 SLP188 T01170094
Loading
Personal Weather Stations






























Interactive Weather Map
Tropical Storm Tracking
New forecast layout! Learn more

10-Day Weather Forecast

Advertisements
Track Severe Weather on mobile